createdAt,value
2016-06-27T00:00:58.323Z,14.24
2016-06-27T00:01:57.083Z,14.21
2016-06-27T00:02:58.355Z,14.28
2016-06-27T00:03:57.663Z,14.28
2016-06-27T00:04:57.664Z,14.21
2016-06-27T00:05:57.645Z,14.2
2016-06-27T00:06:57.841Z,14.28
2016-06-27T00:07:57.643Z,14.2
2016-06-27T00:08:58.215Z,14.32
2016-06-27T00:09:57.812Z,14.2
2016-06-27T00:10:57.575Z,14.29
2016-06-27T00:11:57.580Z,14.27
2016-06-27T00:12:56.929Z,14.29
2016-06-27T00:13:58.152Z,14.28
2016-06-27T00:14:57.530Z,14.19
2016-06-27T00:15:58.110Z,14.24
2016-06-27T00:16:57.486Z,14.24
2016-06-27T00:17:56.871Z,14.27
2016-06-27T00:18:58.086Z,14.28
2016-06-27T00:19:57.459Z,14.2
2016-06-27T00:20:56.830Z,14.19
2016-06-27T00:21:58.043Z,14.13
2016-06-27T00:22:56.795Z,14.19
2016-06-27T00:23:57.417Z,14.2
2016-06-27T00:24:57.383Z,14.12
2016-06-27T00:25:57.397Z,14.14
2016-06-27T00:26:56.762Z,14.12
2016-06-27T00:27:56.738Z,14.06
2016-06-27T00:28:57.340Z,14.06
2016-06-27T00:29:56.730Z,14.07
2016-06-27T00:30:57.928Z,14.06
2016-06-27T00:31:56.681Z,14.12
2016-06-27T00:32:57.279Z,14.1
2016-06-27T00:33:57.879Z,13.99
2016-06-27T00:34:56.646Z,14.01
2016-06-27T00:35:57.854Z,14.06
2016-06-27T00:36:57.241Z,13.96
2016-06-27T00:37:57.216Z,13.96
2016-06-27T00:38:57.833Z,14.06
2016-06-27T00:39:56.582Z,13.99
2016-06-27T00:40:57.189Z,13.94
2016-06-27T00:41:57.163Z,13.92
2016-06-27T00:42:57.152Z,13.94
2016-06-27T00:43:57.747Z,13.96
2016-06-27T00:44:57.745Z,13.99
2016-06-27T00:45:57.723Z,13.94
2016-06-27T00:46:57.720Z,13.95
2016-06-27T00:47:57.123Z,13.96
2016-06-27T00:48:57.102Z,13.96
2016-06-27T00:49:57.670Z,13.92
2016-06-27T00:50:57.693Z,13.88
2016-06-27T00:51:57.067Z,13.83
2016-06-27T00:52:56.421Z,13.88
2016-06-27T00:53:57.608Z,13.88
2016-06-27T00:54:56.997Z,13.88
2016-06-27T00:55:56.389Z,13.83
2016-06-27T00:56:56.967Z,13.79
2016-06-27T00:57:56.947Z,13.83
2016-06-27T00:58:56.937Z,13.92
2016-06-27T00:59:56.923Z,13.79
2016-06-27T01:00:56.309Z,13.79
2016-06-27T01:01:57.514Z,13.84
2016-06-27T01:02:56.272Z,13.77
2016-06-27T01:03:56.867Z,13.77
2016-06-27T01:04:56.866Z,13.8
2016-06-27T01:05:56.859Z,13.81
2016-06-27T01:06:56.823Z,13.89
2016-06-27T01:07:56.216Z,13.87
2016-06-27T01:08:56.203Z,13.84
2016-06-27T01:09:56.176Z,13.88
2016-06-27T01:10:56.167Z,13.79
2016-06-27T01:11:57.369Z,13.84
2016-06-27T01:12:56.741Z,13.83
2016-06-27T01:13:57.404Z,13.73
2016-06-27T01:14:56.101Z,13.71
2016-06-27T01:15:56.732Z,13.69
2016-06-27T01:16:56.706Z,13.69
2016-06-27T01:17:56.700Z,13.73
2016-06-27T01:18:56.060Z,13.71
2016-06-27T01:19:56.704Z,13.73
2016-06-27T01:20:56.035Z,13.76
2016-06-27T01:21:57.250Z,13.71
2016-06-27T01:22:56.840Z,13.65
2016-06-27T01:23:56.611Z,13.7
2016-06-27T01:24:56.589Z,13.71
2016-06-27T01:25:57.201Z,13.69
2016-06-27T01:26:57.179Z,13.58
2016-06-27T01:27:57.155Z,13.69
2016-06-27T01:28:56.732Z,13.61
2016-06-27T01:29:56.526Z,13.63
2016-06-27T01:30:57.141Z,13.55
2016-06-27T01:31:56.509Z,13.65
2016-06-27T01:32:55.879Z,13.56
2016-06-27T01:33:56.506Z,13.61
2016-06-27T01:34:56.442Z,13.61
2016-06-27T01:35:56.469Z,13.58
2016-06-27T01:36:56.461Z,13.52
2016-06-27T01:37:56.410Z,13.55
2016-06-27T01:38:56.398Z,13.54
2016-06-27T01:39:55.787Z,13.61
2016-06-27T01:40:56.395Z,13.61
2016-06-27T01:41:55.785Z,13.52
2016-06-27T01:42:56.966Z,13.55
2016-06-27T01:43:56.938Z,13.58
2016-06-27T01:44:56.939Z,13.49
2016-06-27T01:45:56.301Z,13.52
2016-06-27T01:46:56.895Z,13.52
2016-06-27T01:47:56.293Z,13.46
2016-06-27T01:48:56.275Z,13.46
2016-06-27T01:49:56.245Z,13.44
2016-06-27T01:50:56.884Z,13.47
2016-06-27T01:51:55.650Z,13.47
2016-06-27T01:52:55.595Z,13.44
2016-06-27T01:53:56.202Z,13.4
2016-06-27T01:54:56.178Z,13.43
2016-06-27T01:55:56.163Z,13.4
2016-06-27T01:56:56.156Z,13.33
2016-06-27T01:57:56.762Z,13.38
2016-06-27T01:58:56.754Z,13.43
2016-06-27T01:59:56.131Z,13.3
2016-06-27T02:00:56.718Z,13.41
2016-06-27T02:01:56.714Z,13.41
2016-06-27T02:02:55.454Z,13.37
2016-06-27T02:03:56.051Z,13.4
2016-06-27T02:04:55.449Z,13.36
2016-06-27T02:05:56.035Z,13.41
2016-06-27T02:06:55.604Z,13.37
2016-06-27T02:07:55.990Z,13.36
2016-06-27T02:08:55.991Z,13.41
2016-06-27T02:09:55.977Z,13.4
2016-06-27T02:10:55.953Z,13.33
2016-06-27T02:11:55.386Z,13.41
2016-06-27T02:12:55.330Z,13.32
2016-06-27T02:13:55.315Z,13.36
2016-06-27T02:14:55.335Z,13.36
2016-06-27T02:15:56.518Z,13.38
2016-06-27T02:16:55.892Z,13.3
2016-06-27T02:17:55.880Z,13.33
2016-06-27T02:18:55.850Z,13.33
2016-06-27T02:19:56.478Z,13.27
2016-06-27T02:20:55.827Z,13.25
2016-06-27T02:21:55.811Z,13.25
2016-06-27T02:22:55.802Z,13.32
2016-06-27T02:23:56.393Z,13.3
2016-06-27T02:24:55.786Z,13.3
2016-06-27T02:25:55.750Z,13.24
2016-06-27T02:26:55.142Z,13.15
2016-06-27T02:27:55.106Z,13.25
2016-06-27T02:28:55.746Z,13.25
2016-06-27T02:29:55.714Z,13.24
2016-06-27T02:30:56.323Z,13.2
2016-06-27T02:31:55.674Z,13.24
2016-06-27T02:32:55.038Z,13.27
2016-06-27T02:33:56.255Z,13.24
2016-06-27T02:34:56.242Z,13.2
2016-06-27T02:35:55.013Z,13.2
2016-06-27T02:36:54.985Z,13.22
2016-06-27T02:37:55.591Z,13.22
2016-06-27T02:38:56.208Z,13.17
2016-06-27T02:39:55.552Z,13.09
2016-06-27T02:40:54.946Z,13.18
2016-06-27T02:41:56.149Z,13.22
2016-06-27T02:42:55.521Z,13.07
2016-06-27T02:43:55.511Z,13.09
2016-06-27T02:44:54.899Z,13.09
2016-06-27T02:45:55.495Z,13.12
2016-06-27T02:46:55.479Z,13.12
2016-06-27T02:47:55.455Z,13.18
2016-06-27T02:48:56.059Z,13.12
2016-06-27T02:49:55.419Z,13.11
2016-06-27T02:50:56.024Z,13.18
2016-06-27T02:51:55.396Z,13.21
2016-06-27T02:52:54.769Z,13.22
2016-06-27T02:53:55.376Z,13.07
2016-06-27T02:54:55.396Z,13.14
2016-06-27T02:55:54.735Z,13.14
2016-06-27T02:56:54.723Z,13.14
2016-06-27T02:57:55.349Z,13.03
2016-06-27T02:58:55.919Z,13.11
2016-06-27T02:59:54.677Z,13.06
2016-06-27T03:00:55.273Z,13.21
2016-06-27T03:01:54.663Z,13.2
2016-06-27T03:02:55.250Z,13.09
2016-06-27T03:03:55.230Z,13.14
2016-06-27T03:04:55.837Z,13.09
2016-06-27T03:05:54.589Z,13.2
2016-06-27T03:06:55.188Z,13.14
2016-06-27T03:07:55.844Z,13.07
2016-06-27T03:08:55.782Z,13.09
2016-06-27T03:09:55.151Z,13.09
2016-06-27T03:10:55.135Z,13.21
2016-06-27T03:11:55.757Z,13.11
2016-06-27T03:12:55.119Z,13.07
2016-06-27T03:13:54.499Z,13.09
2016-06-27T03:14:55.070Z,13.09
2016-06-27T03:15:55.677Z,13.22
2016-06-27T03:16:55.042Z,13.14
2016-06-27T03:17:55.040Z,13.07
2016-06-27T03:18:55.034Z,13.2
2016-06-27T03:19:54.435Z,13.2
2016-06-27T03:20:55.624Z,13.09
2016-06-27T03:21:54.985Z,13.15
2016-06-27T03:22:54.962Z,13.18
2016-06-27T03:23:54.343Z,13.24
2016-06-27T03:24:54.942Z,13.2
2016-06-27T03:25:55.573Z,13.25
2016-06-27T03:26:54.916Z,13.09
2016-06-27T03:27:55.500Z,13.07
2016-06-27T03:28:54.916Z,13.18
2016-06-27T03:29:54.877Z,13.12
2016-06-27T03:30:54.259Z,13.21
2016-06-27T03:31:54.236Z,13.18
2016-06-27T03:32:55.475Z,13.04
2016-06-27T03:33:54.194Z,13.17
2016-06-27T03:34:54.197Z,13.15
2016-06-27T03:35:54.182Z,13.21
2016-06-27T03:36:54.774Z,13.09
2016-06-27T03:37:54.161Z,13.07
2016-06-27T03:38:54.139Z,13.11
2016-06-27T03:39:55.336Z,13.24
2016-06-27T03:40:55.335Z,13.04
2016-06-27T03:41:55.310Z,13.21
2016-06-27T03:42:55.311Z,13.09
2016-06-27T03:43:55.298Z,13.18
2016-06-27T03:44:54.657Z,13.24
2016-06-27T03:45:55.281Z,13.06
2016-06-27T03:46:55.257Z,13.12
2016-06-27T03:47:54.633Z,13.15
2016-06-27T03:48:54.608Z,13.11
2016-06-27T03:49:54.586Z,13.18
2016-06-27T03:50:53.956Z,13.24
2016-06-27T03:51:54.571Z,13.14
2016-06-27T03:52:54.582Z,13.25
2016-06-27T03:53:54.526Z,13.12
2016-06-27T03:54:53.910Z,13.21
2016-06-27T03:55:53.899Z,13.12
2016-06-27T03:56:55.111Z,13.06
2016-06-27T03:57:54.488Z,13.2
2016-06-27T03:58:54.476Z,13.11
2016-06-27T03:59:55.079Z,13.14
2016-06-27T04:00:54.685Z,13.21
2016-06-27T04:01:53.809Z,13.2
2016-06-27T04:02:53.813Z,13.21
2016-06-27T04:03:54.448Z,13.21
2016-06-27T04:04:53.780Z,13.2
2016-06-27T04:05:53.750Z,13.3
2016-06-27T04:06:55.178Z,13.24
2016-06-27T04:07:53.727Z,13.25
2016-06-27T04:08:53.714Z,13.27
2016-06-27T04:09:54.319Z,13.3
2016-06-27T04:10:54.299Z,13.22
2016-06-27T04:11:54.316Z,13.22
2016-06-27T04:12:54.288Z,13.2
2016-06-27T04:13:54.277Z,13.22
2016-06-27T04:14:54.854Z,13.29
2016-06-27T04:15:54.866Z,13.3
2016-06-27T04:16:54.837Z,13.3
2016-06-27T04:17:54.871Z,13.33
2016-06-27T04:18:54.801Z,13.37
2016-06-27T04:19:54.807Z,13.41
2016-06-27T04:20:53.558Z,13.41
2016-06-27T04:21:53.558Z,13.43
2016-06-27T04:22:54.140Z,13.4
2016-06-27T04:23:54.114Z,13.46
2016-06-27T04:24:53.499Z,13.43
2016-06-27T04:25:54.096Z,13.41
2016-06-27T04:26:54.723Z,13.46
2016-06-27T04:27:54.071Z,13.46
2016-06-27T04:28:53.468Z,13.55
2016-06-27T04:29:54.802Z,13.58
2016-06-27T04:30:54.034Z,13.44
2016-06-27T04:31:54.025Z,13.56
2016-06-27T04:32:54.011Z,13.61
2016-06-27T04:33:54.596Z,13.52
2016-06-27T04:34:53.969Z,13.59
2016-06-27T04:35:53.969Z,13.67
2016-06-27T04:36:53.334Z,13.63
2016-06-27T04:37:53.944Z,13.59
2016-06-27T04:38:53.306Z,13.59
2016-06-27T04:39:53.300Z,13.59
2016-06-27T04:40:53.930Z,13.67
2016-06-27T04:41:53.495Z,13.67
2016-06-27T04:42:54.770Z,13.8
2016-06-27T04:43:54.500Z,13.76
2016-06-27T04:44:54.466Z,13.76
2016-06-27T04:45:53.223Z,13.81
2016-06-27T04:46:54.438Z,13.76
2016-06-27T04:47:53.199Z,13.79
2016-06-27T04:48:53.826Z,13.77
2016-06-27T04:49:53.163Z,13.91
2016-06-27T04:50:53.757Z,13.81
2016-06-27T04:51:53.118Z,13.91
2016-06-27T04:52:53.131Z,13.79
2016-06-27T04:53:53.096Z,13.8
2016-06-27T04:54:54.307Z,13.95
2016-06-27T04:55:53.678Z,13.94
2016-06-27T04:56:53.661Z,13.91
2016-06-27T04:57:53.102Z,13.95
2016-06-27T04:58:53.651Z,13.96
2016-06-27T04:59:54.363Z,13.98
2016-06-27T05:00:54.262Z,14.02
2016-06-27T05:01:54.221Z,14.01
2016-06-27T05:02:53.594Z,14.04
2016-06-27T05:03:53.582Z,14.07
2016-06-27T05:04:52.943Z,14.09
2016-06-27T05:05:53.576Z,14.06
2016-06-27T05:06:53.531Z,14.1
2016-06-27T05:07:53.535Z,14.17
2016-06-27T05:08:53.515Z,14.16
2016-06-27T05:09:53.489Z,14.16
2016-06-27T05:10:53.479Z,14.19
2016-06-27T05:11:54.082Z,14.25
2016-06-27T05:12:54.071Z,14.25
2016-06-27T05:13:53.461Z,14.34
2016-06-27T05:14:53.431Z,14.28
2016-06-27T05:15:54.020Z,14.24
2016-06-27T05:16:54.029Z,14.27
2016-06-27T05:17:53.396Z,14.31
2016-06-27T05:18:53.993Z,14.28
2016-06-27T05:19:53.997Z,14.35
2016-06-27T05:20:53.981Z,14.34
2016-06-27T05:21:53.347Z,14.42
2016-06-27T05:22:53.323Z,14.35
2016-06-27T05:23:52.697Z,14.42
2016-06-27T05:24:53.288Z,14.46
2016-06-27T05:25:53.894Z,14.47
2016-06-27T05:26:53.263Z,14.49
2016-06-27T05:27:53.860Z,14.56
2016-06-27T05:28:54.052Z,14.52
2016-06-27T05:29:52.619Z,14.57
2016-06-27T05:30:53.826Z,14.47
2016-06-27T05:31:53.807Z,14.61
2016-06-27T05:32:53.186Z,14.53
2016-06-27T05:33:53.789Z,14.6
2016-06-27T05:34:53.151Z,14.67
2016-06-27T05:35:53.367Z,14.67
2016-06-27T05:36:53.131Z,14.69
2016-06-27T05:37:53.732Z,14.78
2016-06-27T05:38:53.729Z,14.81
2016-06-27T05:39:53.088Z,14.9
2016-06-27T05:40:53.721Z,14.95
2016-06-27T05:41:53.072Z,15.05
2016-06-27T05:42:53.678Z,14.98
2016-06-27T05:43:53.041Z,15.09
2016-06-27T05:44:53.018Z,15.17
2016-06-27T05:45:52.395Z,15.26
2016-06-27T05:46:52.997Z,15.3
2016-06-27T05:47:52.989Z,15.3
2016-06-27T05:48:52.984Z,15.3
2016-06-27T05:49:52.353Z,15.43
2016-06-27T05:50:52.341Z,15.52
2016-06-27T05:51:52.313Z,15.54
2016-06-27T05:52:52.921Z,15.57
2016-06-27T05:53:53.529Z,15.64
2016-06-27T05:54:53.509Z,15.7
2016-06-27T05:55:52.905Z,15.75
2016-06-27T05:56:53.493Z,15.85
2016-06-27T05:57:52.889Z,15.81
2016-06-27T05:58:53.461Z,15.82
2016-06-27T05:59:52.825Z,15.92
2016-06-27T06:00:52.823Z,15.93
2016-06-27T06:01:52.822Z,15.93
2016-06-27T06:02:53.420Z,15.94
2016-06-27T06:03:52.783Z,15.96
2016-06-27T06:04:52.758Z,15.89
2016-06-27T06:05:52.783Z,15.85
2016-06-27T06:06:52.993Z,15.82
2016-06-27T06:07:52.734Z,15.85
2016-06-27T06:08:52.715Z,15.86
2016-06-27T06:09:53.327Z,15.89
2016-06-27T06:10:52.076Z,15.79
2016-06-27T06:11:52.686Z,15.76
2016-06-27T06:12:52.669Z,15.82
2016-06-27T06:13:53.281Z,15.84
2016-06-27T06:14:53.275Z,15.78
2016-06-27T06:15:52.633Z,15.76
2016-06-27T06:16:52.005Z,15.79
2016-06-27T06:17:52.629Z,15.79
2016-06-27T06:18:52.593Z,15.79
2016-06-27T06:19:51.977Z,15.78
2016-06-27T06:20:53.175Z,15.78
2016-06-27T06:21:51.944Z,15.86
2016-06-27T06:22:53.165Z,15.92
2016-06-27T06:23:52.535Z,15.89
2016-06-27T06:24:52.524Z,16.12
2016-06-27T06:25:52.515Z,16.34
2016-06-27T06:26:52.513Z,16.65
2016-06-27T06:27:53.101Z,16.8
2016-06-27T06:28:52.498Z,16.71
2016-06-27T06:29:52.470Z,16.52
2016-06-27T06:30:52.462Z,16.31
2016-06-27T06:31:52.448Z,16.3
2016-06-27T06:32:52.433Z,16.3
2016-06-27T06:33:53.058Z,16.18
2016-06-27T06:34:53.031Z,16.2
2016-06-27T06:35:51.801Z,16.25
2016-06-27T06:36:52.395Z,16.23
2016-06-27T06:37:52.995Z,16.15
2016-06-27T06:38:52.996Z,16.2
2016-06-27T06:39:52.347Z,16.11
2016-06-27T06:40:52.329Z,16.15
2016-06-27T06:41:52.314Z,16.16
2016-06-27T06:42:52.303Z,16.15
2016-06-27T06:43:52.312Z,16.15
2016-06-27T06:44:52.905Z,16.15
2016-06-27T06:45:52.892Z,16.18
2016-06-27T06:46:52.263Z,16.25
2016-06-27T06:47:52.893Z,16.27
2016-06-27T06:48:52.241Z,16.25
2016-06-27T06:49:52.219Z,16.23
2016-06-27T06:50:51.608Z,16.26
2016-06-27T06:51:52.207Z,16.26
2016-06-27T06:52:52.210Z,16.35
2016-06-27T06:53:52.842Z,16.42
2016-06-27T06:54:52.800Z,16.58
2016-06-27T06:55:51.562Z,16.74
2016-06-27T06:56:52.155Z,17.32
2016-06-27T06:57:52.165Z,17.99
2016-06-27T06:58:52.130Z,18.49
2016-06-27T06:59:51.523Z,18.61
2016-06-27T07:00:52.114Z,19.05
2016-06-27T07:01:52.709Z,18.9
2016-06-27T07:02:52.110Z,19.51
2016-06-27T07:03:52.686Z,19.54
2016-06-27T07:04:52.061Z,19.86
2016-06-27T07:05:52.062Z,19.15
2016-06-27T07:06:52.036Z,18.92
2016-06-27T07:07:52.671Z,18.5
2016-06-27T07:08:52.625Z,18.33
2016-06-27T07:09:51.386Z,18
2016-06-27T07:10:51.389Z,17.85
2016-06-27T07:11:52.602Z,17.78
2016-06-27T07:12:51.981Z,17.55
2016-06-27T07:13:51.963Z,17.64
2016-06-27T07:14:52.601Z,17.54
2016-06-27T07:15:51.963Z,17.81
2016-06-27T07:16:51.934Z,18.13
2016-06-27T07:17:52.541Z,18.94
2016-06-27T07:18:51.906Z,19.55
2016-06-27T07:19:51.901Z,20.18
2016-06-27T07:20:51.875Z,20.3
2016-06-27T07:21:51.883Z,20.69
2016-06-27T07:22:52.476Z,20.46
2016-06-27T07:23:52.455Z,20.62
2016-06-27T07:24:51.231Z,20.49
2016-06-27T07:25:51.862Z,20.61
2016-06-27T07:26:51.823Z,20.79
2016-06-27T07:27:51.807Z,20.81
2016-06-27T07:28:51.198Z,21.02
2016-06-27T07:29:51.193Z,21.24
2016-06-27T07:30:51.782Z,21.38
2016-06-27T07:31:51.772Z,20.93
2016-06-27T07:32:51.164Z,20.95
2016-06-27T07:33:51.772Z,20.5
2016-06-27T07:34:52.370Z,20.12
2016-06-27T07:35:52.383Z,20.15
2016-06-27T07:36:51.741Z,20.46
2016-06-27T07:37:51.743Z,20.2
2016-06-27T07:38:51.731Z,19.8
2016-06-27T07:39:51.742Z,19.63
2016-06-27T07:40:51.100Z,19.32
2016-06-27T07:41:51.084Z,19.23
2016-06-27T07:42:51.695Z,19.14
2016-06-27T07:43:52.303Z,19.17
2016-06-27T07:44:52.325Z,19.02
2016-06-27T07:45:51.671Z,18.99
2016-06-27T07:46:52.274Z,18.94
2016-06-27T07:47:51.670Z,18.79
2016-06-27T07:48:51.638Z,18.61
2016-06-27T07:49:51.629Z,18.64
2016-06-27T07:50:51.017Z,18.55
2016-06-27T07:51:51.621Z,18.5
2016-06-27T07:52:51.608Z,18.49
2016-06-27T07:53:52.217Z,18.49
2016-06-27T07:54:52.240Z,18.4
2016-06-27T07:55:52.207Z,18.44
2016-06-27T07:56:51.630Z,18.43
2016-06-27T07:57:50.958Z,18.43
2016-06-27T07:58:51.587Z,18.52
2016-06-27T07:59:50.938Z,18.36
2016-06-27T08:00:51.536Z,18.5
2016-06-27T08:01:52.160Z,18.5
2016-06-27T08:02:52.165Z,18.47
2016-06-27T08:03:51.534Z,18.49
2016-06-27T08:04:51.504Z,18.33
2016-06-27T08:05:52.121Z,18.34
2016-06-27T08:06:52.317Z,18.37
2016-06-27T08:07:51.476Z,18.4
2016-06-27T08:08:50.846Z,18.29
2016-06-27T08:09:51.452Z,18.34
2016-06-27T08:10:52.064Z,18.24
2016-06-27T08:11:52.048Z,18.34
2016-06-27T08:12:50.837Z,18.39
2016-06-27T08:13:52.038Z,18.43
2016-06-27T08:14:52.026Z,18.54
2016-06-27T08:15:51.398Z,18.62
2016-06-27T08:16:51.407Z,18.54
2016-06-27T08:17:50.757Z,18.58
2016-06-27T08:18:50.758Z,18.62
2016-06-27T08:19:51.353Z,18.55
2016-06-27T08:20:51.345Z,18.43
2016-06-27T08:21:51.327Z,18.42
2016-06-27T08:22:50.718Z,18.39
2016-06-27T08:23:51.317Z,18.39
2016-06-27T08:24:50.693Z,18.46
2016-06-27T08:25:51.306Z,18.5
2016-06-27T08:26:51.927Z,18.55
2016-06-27T08:27:51.281Z,18.61
2016-06-27T08:28:51.284Z,18.57
2016-06-27T08:29:51.931Z,18.52
2016-06-27T08:30:50.663Z,18.58
2016-06-27T08:31:51.935Z,18.52
2016-06-27T08:32:50.620Z,18.55
2016-06-27T08:33:51.842Z,18.55
2016-06-27T08:34:51.843Z,18.62
2016-06-27T08:35:51.206Z,18.64
2016-06-27T08:36:50.591Z,18.57
2016-06-27T08:37:51.186Z,18.55
2016-06-27T08:38:50.572Z,18.54
2016-06-27T08:39:51.162Z,18.55
2016-06-27T08:40:51.145Z,18.57
2016-06-27T08:41:51.134Z,18.52
2016-06-27T08:42:50.523Z,18.55
2016-06-27T08:43:50.510Z,18.67
2016-06-27T08:44:51.109Z,18.7
2016-06-27T08:45:51.750Z,18.65
2016-06-27T08:46:51.116Z,18.58
2016-06-27T08:47:51.083Z,18.61
2016-06-27T08:48:51.069Z,18.68
2016-06-27T08:49:50.476Z,18.77
2016-06-27T08:50:51.671Z,18.82
2016-06-27T08:51:51.073Z,18.86
2016-06-27T08:52:50.426Z,18.84
2016-06-27T08:53:51.640Z,18.9
2016-06-27T08:54:50.415Z,18.82
2016-06-27T08:55:50.388Z,18.83
2016-06-27T08:56:51.003Z,18.99
2016-06-27T08:57:51.623Z,19.01
2016-06-27T08:58:50.379Z,18.97
2016-06-27T08:59:50.360Z,18.98
2016-06-27T09:00:51.575Z,18.9
2016-06-27T09:01:50.967Z,18.84
2016-06-27T09:02:50.351Z,18.91
2016-06-27T09:03:51.556Z,18.79
2016-06-27T09:04:50.311Z,18.95
2016-06-27T09:05:50.907Z,18.99
2016-06-27T09:06:50.910Z,19.02
2016-06-27T09:07:50.943Z,19.08
2016-06-27T09:08:51.510Z,19.01
2016-06-27T09:09:50.879Z,19.1
2016-06-27T09:10:51.478Z,19.15
2016-06-27T09:11:50.851Z,19.2
2016-06-27T09:12:51.498Z,19.17
2016-06-27T09:13:50.247Z,19.29
2016-06-27T09:14:51.467Z,19.4
2016-06-27T09:15:50.843Z,19.51
2016-06-27T09:16:50.817Z,19.76
2016-06-27T09:17:50.206Z,19.98
2016-06-27T09:18:50.177Z,20.23
2016-06-27T09:19:50.182Z,20.42
2016-06-27T09:20:50.779Z,20.68
2016-06-27T09:21:50.184Z,20.83
2016-06-27T09:22:50.758Z,20.98
2016-06-27T09:23:51.390Z,20.87
2016-06-27T09:24:51.373Z,20.66
2016-06-27T09:25:50.740Z,20.61
2016-06-27T09:26:50.738Z,20.62
2016-06-27T09:27:50.726Z,20.41
2016-06-27T09:28:50.705Z,20.39
2016-06-27T09:29:50.726Z,20.59
2016-06-27T09:30:50.698Z,20.96
2016-06-27T09:31:50.098Z,20.87
2016-06-27T09:32:50.680Z,20.74
2016-06-27T09:33:50.678Z,20.76
2016-06-27T09:34:50.673Z,20.66
2016-06-27T09:35:50.060Z,20.39
2016-06-27T09:36:50.656Z,20.46
2016-06-27T09:37:50.030Z,20.46
2016-06-27T09:38:51.260Z,20.43
2016-06-27T09:39:50.631Z,20.28
2016-06-27T09:40:50.027Z,20.39
2016-06-27T09:41:50.634Z,20.25
2016-06-27T09:42:50.020Z,20.23
2016-06-27T09:43:50.608Z,20.42
2016-06-27T09:44:49.981Z,20.58
2016-06-27T09:45:51.202Z,20.86
2016-06-27T09:46:50.583Z,21.23
2016-06-27T09:47:51.186Z,21.3
2016-06-27T09:48:50.561Z,21.56
2016-06-27T09:49:49.983Z,21.71
2016-06-27T09:50:50.546Z,21.53
2016-06-27T09:51:50.540Z,21.27
2016-06-27T09:52:50.533Z,21.11
2016-06-27T09:53:50.529Z,21.11
2016-06-27T09:54:51.157Z,20.96
2016-06-27T09:55:50.514Z,20.84
2016-06-27T09:56:51.110Z,20.61
2016-06-27T09:57:50.506Z,20.61
2016-06-27T09:58:50.502Z,20.72
2016-06-27T09:59:51.129Z,20.89
2016-06-27T10:00:50.472Z,20.8
2016-06-27T10:01:50.482Z,20.87
2016-06-27T10:02:50.464Z,20.96
2016-06-27T10:03:50.479Z,20.98
2016-06-27T10:04:49.854Z,21.59
2016-06-27T10:05:50.447Z,22.1
2016-06-27T10:06:51.279Z,22.32
2016-06-27T10:07:50.422Z,22.68
2016-06-27T10:08:50.435Z,22.39
2016-06-27T10:09:50.412Z,22.06
2016-06-27T10:10:51.033Z,21.91
2016-06-27T10:11:49.802Z,21.64
2016-06-27T10:12:51.019Z,21.48
2016-06-27T10:13:49.774Z,21.36
2016-06-27T10:14:49.765Z,21.29
2016-06-27T10:15:49.766Z,21.05
2016-06-27T10:16:49.765Z,21.08
2016-06-27T10:17:49.786Z,20.96
2016-06-27T10:18:49.748Z,21.09
2016-06-27T10:19:49.746Z,21.09
2016-06-27T10:20:50.950Z,21.21
2016-06-27T10:21:49.726Z,20.93
2016-06-27T10:22:50.975Z,20.91
2016-06-27T10:23:50.942Z,20.69
2016-06-27T10:24:50.935Z,20.69
2016-06-27T10:25:50.308Z,20.74
2016-06-27T10:26:49.685Z,20.69
2016-06-27T10:27:50.530Z,20.69
2016-06-27T10:28:50.900Z,20.76
2016-06-27T10:29:50.289Z,20.53
2016-06-27T10:30:49.654Z,20.71
2016-06-27T10:31:50.262Z,20.58
2016-06-27T10:32:49.657Z,20.58
2016-06-27T10:33:51.215Z,20.54
2016-06-27T10:34:50.852Z,20.58
2016-06-27T10:35:50.843Z,20.62
2016-06-27T10:36:49.624Z,20.66
2016-06-27T10:37:49.611Z,20.76
2016-06-27T10:38:50.213Z,20.77
2016-06-27T10:39:50.234Z,20.87
2016-06-27T10:40:50.198Z,20.96
2016-06-27T10:41:50.179Z,21.02
2016-06-27T10:42:50.795Z,21.09
2016-06-27T10:43:49.564Z,21.2
2016-06-27T10:44:50.181Z,21.23
2016-06-27T10:45:49.561Z,21.06
2016-06-27T10:46:50.788Z,21.09
2016-06-27T10:47:49.559Z,21.05
2016-06-27T10:48:50.126Z,21.06
2016-06-27T10:49:50.135Z,21.06
2016-06-27T10:50:50.123Z,20.96
2016-06-27T10:51:50.719Z,20.84
2016-06-27T10:52:49.482Z,20.9
2016-06-27T10:53:49.491Z,20.86
2016-06-27T10:54:50.098Z,20.89
2016-06-27T10:55:49.468Z,20.81
2016-06-27T10:56:50.086Z,20.93
2016-06-27T10:57:50.702Z,21.14
2016-06-27T10:58:50.695Z,21.09
2016-06-27T10:59:50.660Z,21.11
2016-06-27T11:00:50.048Z,21.09
2016-06-27T11:01:50.053Z,20.95
2016-06-27T11:02:49.454Z,20.93
2016-06-27T11:03:50.631Z,20.91
2016-06-27T11:04:50.024Z,20.98
2016-06-27T11:05:50.614Z,20.99
2016-06-27T11:06:49.996Z,20.9
2016-06-27T11:07:50.018Z,20.98
2016-06-27T11:08:49.371Z,21.05
2016-06-27T11:09:50.597Z,21.19
2016-06-27T11:10:49.959Z,21.13
2016-06-27T11:11:49.346Z,21.09
2016-06-27T11:12:50.601Z,21.09
2016-06-27T11:13:50.553Z,21.17
2016-06-27T11:14:49.326Z,21.3
2016-06-27T11:15:49.341Z,21.41
2016-06-27T11:16:49.910Z,21.54
2016-06-27T11:17:49.924Z,21.48
2016-06-27T11:18:49.920Z,21.42
2016-06-27T11:19:49.305Z,21.34
2016-06-27T11:20:50.515Z,21.24
2016-06-27T11:21:50.529Z,21.08
2016-06-27T11:22:49.886Z,20.96
2016-06-27T11:23:50.493Z,20.9
2016-06-27T11:24:50.474Z,20.86
2016-06-27T11:25:49.881Z,20.68
2016-06-27T11:26:49.897Z,20.69
2016-06-27T11:27:49.851Z,20.71
2016-06-27T11:28:49.832Z,20.69
2016-06-27T11:29:49.239Z,20.8
2016-06-27T11:30:49.825Z,20.74
2016-06-27T11:31:49.199Z,20.68
2016-06-27T11:32:50.450Z,20.86
2016-06-27T11:33:50.442Z,20.83
2016-06-27T11:34:49.196Z,20.93
2016-06-27T11:35:49.799Z,20.9
2016-06-27T11:36:50.392Z,20.71
2016-06-27T11:37:49.769Z,20.46
2016-06-27T11:38:49.147Z,20.46
2016-06-27T11:39:50.389Z,20.34
2016-06-27T11:40:49.738Z,20.25
2016-06-27T11:41:49.731Z,20.12
2016-06-27T11:42:49.724Z,19.9
2016-06-27T11:43:50.343Z,19.78
2016-06-27T11:44:50.351Z,19.84
2016-06-27T11:45:50.310Z,19.8
2016-06-27T11:46:49.737Z,19.69
2016-06-27T11:47:49.699Z,19.72
2016-06-27T11:48:49.075Z,19.72
2016-06-27T11:49:49.675Z,19.58
2016-06-27T11:50:50.265Z,19.7
2016-06-27T11:51:49.689Z,19.79
2016-06-27T11:52:49.640Z,19.79
2016-06-27T11:53:49.023Z,19.88
2016-06-27T11:54:49.614Z,19.9
2016-06-27T11:55:50.226Z,19.95
2016-06-27T11:56:48.980Z,19.94
2016-06-27T11:57:49.648Z,19.87
2016-06-27T11:58:49.595Z,19.93
2016-06-27T11:59:48.973Z,19.97
2016-06-27T12:00:50.173Z,19.91
2016-06-27T12:01:49.570Z,19.94
2016-06-27T12:02:49.535Z,19.91
2016-06-27T12:03:50.129Z,19.87
2016-06-27T12:04:49.520Z,19.91
2016-06-27T12:05:50.143Z,20.02
2016-06-27T12:06:50.317Z,19.9
2016-06-27T12:07:50.115Z,19.87
2016-06-27T12:08:50.118Z,19.86
2016-06-27T12:09:48.868Z,19.73
2016-06-27T12:10:49.481Z,19.83
2016-06-27T12:11:49.464Z,19.86
2016-06-27T12:12:49.462Z,19.69
2016-06-27T12:13:50.049Z,19.66
2016-06-27T12:14:49.447Z,19.66
2016-06-27T12:15:50.060Z,19.69
2016-06-27T12:16:48.831Z,19.68
2016-06-27T12:17:49.425Z,19.6
2016-06-27T12:18:49.415Z,19.7
2016-06-27T12:19:49.422Z,19.61
2016-06-27T12:20:49.999Z,19.66
2016-06-27T12:21:48.781Z,19.66
2016-06-27T12:22:49.395Z,19.68
2016-06-27T12:23:49.344Z,19.66
2016-06-27T12:24:49.340Z,19.61
2016-06-27T12:25:49.953Z,19.7
2016-06-27T12:26:49.937Z,19.73
2016-06-27T12:27:49.313Z,19.69
2016-06-27T12:28:49.321Z,19.54
2016-06-27T12:29:48.681Z,19.7
2016-06-27T12:30:49.295Z,19.58
2016-06-27T12:31:49.902Z,19.58
2016-06-27T12:32:48.671Z,19.63
2016-06-27T12:33:49.268Z,19.54
2016-06-27T12:34:49.245Z,19.63
2016-06-27T12:35:49.250Z,19.63
2016-06-27T12:36:49.253Z,19.7
2016-06-27T12:37:48.605Z,19.61
2016-06-27T12:38:49.198Z,19.73
2016-06-27T12:39:49.235Z,19.68
2016-06-27T12:40:49.191Z,19.61
2016-06-27T12:41:48.549Z,19.7
2016-06-27T12:42:49.207Z,19.58
2016-06-27T12:43:49.175Z,19.61
2016-06-27T12:44:49.621Z,19.51
2016-06-27T12:45:49.782Z,19.51
2016-06-27T12:46:49.143Z,19.54
2016-06-27T12:47:49.125Z,19.43
2016-06-27T12:48:49.120Z,19.55
2016-06-27T12:49:49.734Z,19.5
2016-06-27T12:50:49.109Z,19.57
2016-06-27T12:51:48.459Z,19.47
2016-06-27T12:52:48.467Z,19.65
2016-06-27T12:53:49.054Z,19.61
2016-06-27T12:54:48.444Z,19.68
2016-06-27T12:55:48.431Z,19.7